Time;durP1;ratioP1;P1;durP2;ratioP2;P2;SDS_P1;SDS_P2;PMS_P1;PMS_P2;Temp;Humidity;BMP_temperature;BMP_pressure;BME280_temperature;BME280_humidity;BME280_pressure;Samples;Min_cycle;Max_cycle;Signal;HPM_P1;HPM_P2
2022/12/22 03:26:27;;;;;;;2.47;1.35;;;10.50;99.90;;;;;;4919255;29;20067;-76
2022/12/22 03:28:54;;;;;;;3.97;1.45;;;10.50;99.90;;;;;;4915912;29;20407;-77
2022/12/22 03:31:20;;;;;;;2.63;1.45;;;10.50;99.90;;;;;;4933603;29;20039;-77
2022/12/22 03:33:45;;;;;;;2.65;1.08;;;10.50;99.90;;;;;;4916586;29;20035;-77
2022/12/22 03:36:11;;;;;;;8.63;2.38;;;10.60;99.90;;;;;;4933592;29;20027;-76
2022/12/22 03:38:37;;;;;;;4.60;1.17;;;10.60;99.90;;;;;;4932296;29;20407;-76
2022/12/22 03:41:03;;;;;;;6.30;1.15;;;10.60;99.90;;;;;;4919627;29;20075;-76
2022/12/22 03:46:30;;;;;;;3.05;1.55;;;10.60;99.90;;;;;;4933578;29;20035;-76
2022/12/22 03:49:11;;;;;;;4.80;0.90;;;10.60;99.90;;;;;;4917234;29;20051;-76
2022/12/22 03:51:46;;;;;;;1.83;1.15;;;10.70;99.90;;;;;;4915633;29;20110;-76
2022/12/22 03:54:15;;;;;;;1.95;0.80;;;10.70;99.90;;;;;;4933351;29;20030;-76
2022/12/22 03:56:41;;;;;;;2.42;0.77;;;10.70;99.90;;;;;;4916342;29;20063;-76
2022/12/22 03:59:07;;;;;;;4.07;1.20;;;10.70;99.90;;;;;;4916300;29;20069;-75
2022/12/22 04:01:42;;;;;;;1.25;0.75;;;10.70;99.90;;;;;;4915260;29;20052;-75
2022/12/22 04:04:09;;;;;;;2.17;0.75;;;10.70;99.90;;;;;;4934145;29;20563;-75
2022/12/22 04:06:35;;;;;;;0.90;0.77;;;10.60;99.90;;;;;;4933364;29;20585;-76
2022/12/22 04:09:01;;;;;;;0.82;0.63;;;10.70;99.90;;;;;;4915831;29;20043;-75
2022/12/22 04:14:10;;;;;;;1.63;0.70;;;10.70;99.90;;;;;;4932132;29;20059;-76
2022/12/22 04:16:36;;;;;;;2.95;1.25;;;10.70;99.90;;;;;;4933807;29;20510;-76
2022/12/22 04:19:02;;;;;;;1.35;0.68;;;10.70;99.90;;;;;;4933205;29;20487;-75
2022/12/22 04:21:28;;;;;;;2.83;0.88;;;10.80;99.90;;;;;;4934923;29;20043;-76
2022/12/22 04:23:53;;;;;;;7.15;0.98;;;10.80;99.90;;;;;;4932763;29;20035;-76
2022/12/22 04:26:23;;;;;;;3.50;0.88;;;10.80;99.90;;;;;;4933184;29;20031;-76
2022/12/22 04:28:50;;;;;;;1.35;0.70;;;10.80;99.90;;;;;;4916016;29;20554;-77
2022/12/22 04:31:17;;;;;;;0.68;0.60;;;10.80;99.90;;;;;;4913050;29;20032;-75
2022/12/22 04:33:42;;;;;;;2.40;0.80;;;10.80;99.90;;;;;;4914585;29;20489;-74
2022/12/22 04:36:09;;;;;;;2.92;1.10;;;10.80;99.90;;;;;;4933884;29;20028;-77
2022/12/22 04:38:35;;;;;;;4.43;1.38;;;10.80;99.90;;;;;;4917063;29;20032;-79
2022/12/22 04:41:02;;;;;;;2.75;0.77;;;10.70;99.90;;;;;;4931380;29;20039;-78
2022/12/22 04:43:28;;;;;;;6.03;1.33;;;10.70;99.90;;;;;;4933218;29;20517;-79
2022/12/22 04:45:55;;;;;;;4.28;1.00;;;10.70;99.90;;;;;;4915523;29;20067;-77
2022/12/22 04:48:22;;;;;;;1.20;0.70;;;10.70;99.90;;;;;;4928703;29;20036;-76
2022/12/22 04:50:54;;;;;;;1.25;0.75;;;10.70;99.90;;;;;;4930839;29;20131;-78
2022/12/22 04:53:20;;;;;;;1.05;0.52;;;10.60;99.90;;;;;;4933006;29;20024;-77
2022/12/22 04:55:55;;;;;;;0.22;0.22;;;10.60;99.90;;;;;;4911004;29;20495;-75
2022/12/22 04:58:21;;;;;;;2.80;0.45;;;10.60;99.90;;;;;;4933293;29;20046;-80
2022/12/22 05:00:46;;;;;;;4.22;0.63;;;10.50;99.90;;;;;;4932234;29;20509;-77
2022/12/22 05:03:12;;;;;;;4.10;0.80;;;10.50;99.90;;;;;;4933129;29;20040;-78
2022/12/22 05:05:38;;;;;;;5.88;0.70;;;10.50;99.90;;;;;;4933086;29;20037;-80
2022/12/22 05:08:05;;;;;;;0.55;0.38;;;10.50;99.90;;;;;;4932383;29;20127;-78
2022/12/22 05:10:31;;;;;;;0.95;0.60;;;10.40;99.90;;;;;;4915566;29;20031;-76
2022/12/22 05:12:57;;;;;;;1.95;0.73;;;10.50;99.90;;;;;;4932820;29;20492;-78
2022/12/22 05:15:35;;;;;;;0.57;0.30;;;10.50;99.90;;;;;;4932898;29;20048;-77
2022/12/22 05:18:02;;;;;;;0.77;0.57;;;10.40;99.90;;;;;;4931537;29;20035;-77
2022/12/22 05:20:28;;;;;;;1.17;0.60;;;10.40;99.90;;;;;;4931032;29;20046;-79
2022/12/22 05:22:54;;;;;;;1.50;0.45;;;10.40;99.90;;;;;;4915952;29;20036;-79
2022/12/22 05:25:20;;;;;;;0.88;0.50;;;10.50;99.90;;;;;;4932179;29;20032;-76
2022/12/22 05:27:48;;;;;;;0.88;0.40;;;10.50;99.90;;;;;;4932014;29;20024;-77
2022/12/22 05:30:17;;;;;;;1.38;0.88;;;10.50;99.90;;;;;;4934183;29;20496;-77
2022/12/22 05:32:43;;;;;;;0.80;0.57;;;10.50;99.90;;;;;;4936079;29;20796;-77
2022/12/22 05:35:09;;;;;;;1.50;0.60;;;10.50;99.90;;;;;;4935453;29;20031;-76
2022/12/22 05:37:34;;;;;;;0.98;0.50;;;10.50;99.90;;;;;;4918761;29;20035;-76
2022/12/22 05:40:00;;;;;;;1.73;1.00;;;10.60;99.90;;;;;;4934898;29;20043;-76
2022/12/22 05:42:35;;;;;;;4.80;0.93;;;10.60;99.90;;;;;;4931066;29;21047;-76
2022/12/22 05:45:18;;;;;;;1.38;0.70;;;10.60;99.90;;;;;;4923717;29;20036;-74
2022/12/22 05:47:48;;;;;;;1.10;0.65;;;10.60;99.90;;;;;;4923006;29;20158;-74
2022/12/22 05:50:17;;;;;;;0.88;0.40;;;10.60;99.90;;;;;;4923408;29;20134;-76
2022/12/22 05:52:44;;;;;;;0.20;0.20;;;10.70;99.90;;;;;;4908311;29;20036;-75
2022/12/22 05:55:12;;;;;;;0.85;0.63;;;10.70;99.90;;;;;;4902624;29;20030;-76
2022/12/22 05:57:38;;;;;;;6.72;0.90;;;10.70;99.90;;;;;;4934991;29;20067;-76
2022/12/22 06:00:11;;;;;;;2.20;1.15;;;10.80;99.90;;;;;;4935094;29;20551;-76
2022/12/22 06:02:38;;;;;;;5.88;0.65;;;10.80;99.90;;;;;;4934698;29;20040;-75
2022/12/22 06:05:04;;;;;;;2.50;0.45;;;10.90;99.90;;;;;;4931053;29;20040;-76
2022/12/22 06:07:30;;;;;;;4.30;0.88;;;10.90;99.90;;;;;;4917578;29;20036;-76
2022/12/22 06:09:56;;;;;;;2.65;1.40;;;11.00;99.90;;;;;;4935004;29;20115;-76
2022/12/22 06:12:22;;;;;;;7.40;1.05;;;11.00;99.90;;;;;;4934626;29;20040;-77
2022/12/22 06:14:47;;;;;;;1.38;0.68;;;11.00;99.90;;;;;;4935185;29;20040;-77
2022/12/22 06:17:13;;;;;;;4.45;1.20;;;11.00;99.90;;;;;;4934746;29;20078;-76
2022/12/22 06:19:39;;;;;;;0.65;0.55;;;11.00;99.90;;;;;;4934914;29;20526;-76
2022/12/22 06:22:05;;;;;;;0.68;0.60;;;11.00;99.90;;;;;;4934265;29;20040;-77
2022/12/22 06:24:30;;;;;;;1.40;0.43;;;11.10;99.90;;;;;;4918143;29;20188;-77
2022/12/22 06:26:56;;;;;;;5.80;0.68;;;11.10;99.90;;;;;;4934748;29;20032;-78
2022/12/22 06:29:22;;;;;;;1.67;0.52;;;11.10;99.90;;;;;;4935213;29;20114;-77
2022/12/22 06:31:48;;;;;;;0.40;0.30;;;11.00;99.90;;;;;;4934446;29;20404;-77
2022/12/22 06:34:16;;;;;;;2.75;1.15;;;11.00;99.90;;;;;;4916616;29;20040;-76
2022/12/22 06:36:44;;;;;;;0.85;0.32;;;11.00;99.90;;;;;;4938163;29;20507;-76
2022/12/22 06:39:10;;;;;;;5.82;1.08;;;11.00;99.90;;;;;;4918881;29;20043;-77
2022/12/22 06:44:20;;;;;;;3.92;0.68;;;11.00;99.90;;;;;;4934505;29;20119;-66
2022/12/22 06:46:45;;;;;;;1.13;0.75;;;11.00;99.90;;;;;;4934048;29;20119;-71
2022/12/22 06:49:11;;;;;;;15.98;1.15;;;11.00;99.90;;;;;;4943859;29;20042;-69
2022/12/22 06:51:37;;;;;;;0.65;0.40;;;11.00;99.90;;;;;;4933630;29;20036;-70
2022/12/22 06:54:03;;;;;;;1.02;0.73;;;11.00;99.90;;;;;;4941889;29;20023;-71
2022/12/22 06:56:29;;;;;;;3.42;0.90;;;11.00;99.90;;;;;;4926669;29;20395;-70
2022/12/22 06:58:54;;;;;;;4.22;0.50;;;11.00;99.90;;;;;;4945399;29;20063;-70
2022/12/22 07:01:20;;;;;;;5.93;0.88;;;11.00;99.90;;;;;;4939544;29;20031;-72
2022/12/22 07:03:46;;;;;;;1.55;0.50;;;11.10;99.90;;;;;;4938942;29;20027;-72
2022/12/22 07:06:12;;;;;;;2.03;0.73;;;11.10;99.90;;;;;;4957443;23;20031;-71
2022/12/22 07:08:37;;;;;;;2.72;0.98;;;11.10;99.90;;;;;;4961418;28;20043;-72
2022/12/22 07:11:03;;;;;;;11.15;1.45;;;11.10;99.90;;;;;;4956849;28;20054;-72
2022/12/22 07:13:34;;;;;;;2.28;0.73;;;11.10;99.90;;;;;;4963637;28;20570;-72
2022/12/22 07:16:05;;;;;;;12.10;3.50;;;11.00;99.90;;;;;;4950381;28;20550;-71
2022/12/22 07:18:41;;;;;;;2.63;0.65;;;11.00;99.90;;;;;;4957345;28;20129;-73
2022/12/22 07:21:11;;;;;;;1.92;0.73;;;11.00;99.90;;;;;;4936412;28;20035;-69
2022/12/22 07:23:39;;;;;;;5.05;0.80;;;11.00;99.90;;;;;;4951682;28;20039;-68
2022/12/22 07:26:06;;;;;;;1.45;0.60;;;11.00;99.90;;;;;;4935636;29;20031;-69
2022/12/22 07:28:38;;;;;;;2.08;0.90;;;11.00;99.90;;;;;;4952130;28;20073;-70
2022/12/22 07:31:04;;;;;;;1.02;0.85;;;11.10;99.90;;;;;;4959223;28;20031;-70
2022/12/22 07:33:30;;;;;;;4.93;0.70;;;11.10;99.90;;;;;;4945114;28;20052;-72
2022/12/22 07:36:07;;;;;;;3.42;0.93;;;11.10;99.90;;;;;;4971892;28;20154;-69
2022/12/22 07:38:35;;;;;;;3.25;0.63;;;11.10;99.90;;;;;;4968703;28;20035;-71
2022/12/22 07:41:01;;;;;;;6.55;1.30;;;11.10;99.90;;;;;;4967731;28;20054;-70
2022/12/22 07:43:27;;;;;;;2.83;0.70;;;11.20;99.90;;;;;;4969246;28;20031;-71
2022/12/22 07:45:53;;;;;;;1.10;0.60;;;11.10;99.90;;;;;;4960692;28;20041;-70
2022/12/22 07:51:05;;;;;;;0.90;0.40;;;11.20;99.90;;;;;;4961061;28;20043;-70
2022/12/22 07:53:33;;;;;;;2.10;1.55;;;11.20;99.90;;;;;;4959658;28;20510;-71
2022/12/22 07:56:04;;;;;;;1.10;0.38;;;11.20;99.90;;;;;;4957309;28;20047;-70
2022/12/22 07:58:30;;;;;;;3.83;0.68;;;11.20;99.90;;;;;;4962830;28;20050;-70
2022/12/22 08:01:00;;;;;;;5.63;1.08;;;11.20;99.90;;;;;;4960231;28;20031;-71
2022/12/22 08:03:26;;;;;;;5.22;0.80;;;11.30;99.90;;;;;;4969794;28;20038;-70
2022/12/22 08:05:52;;;;;;;4.53;0.80;;;11.20;99.90;;;;;;4962114;28;20062;-70
2022/12/22 08:08:18;;;;;;;7.57;0.70;;;11.30;99.90;;;;;;4963227;28;20039;-70
2022/12/22 08:10:43;;;;;;;1.30;1.08;;;11.30;99.90;;;;;;4937355;29;20031;-70
2022/12/22 08:13:09;;;;;;;1.20;0.60;;;11.30;99.90;;;;;;4949737;28;20031;-70
2022/12/22 08:15:36;;;;;;;0.95;0.65;;;11.40;99.90;;;;;;4970604;28;20019;-69
2022/12/22 08:18:02;;;;;;;3.10;0.32;;;11.40;99.90;;;;;;4957654;28;20034;-69
2022/12/22 08:20:28;;;;;;;2.05;0.80;;;11.50;99.90;;;;;;4957557;28;20030;-71
2022/12/22 08:22:56;;;;;;;3.50;0.52;;;11.60;99.90;;;;;;4962657;28;20057;-72
2022/12/22 08:25:22;;;;;;;3.70;0.85;;;11.60;99.90;;;;;;4947865;28;20035;-70
2022/12/22 08:27:53;;;;;;;1.58;0.60;;;11.60;99.90;;;;;;4949856;28;20050;-70
2022/12/22 08:30:19;;;;;;;4.28;0.32;;;11.60;99.90;;;;;;4947605;28;20339;-72
2022/12/22 08:32:48;;;;;;;7.57;2.22;;;11.80;99.90;;;;;;4955585;28;20031;-71
2022/12/22 08:35:14;;;;;;;1.65;0.52;;;11.80;99.90;;;;;;4945532;29;20039;-73
2022/12/22 08:37:45;;;;;;;4.03;1.33;;;11.70;99.90;;;;;;4953819;28;20039;-71
2022/12/22 08:40:19;;;;;;;2.00;0.50;;;11.80;99.90;;;;;;4945676;28;20062;-72
2022/12/22 08:42:47;;;;;;;2.10;0.60;;;11.80;99.90;;;;;;4967679;28;20038;-74
2022/12/22 08:45:13;;;;;;;3.92;0.63;;;11.90;99.90;;;;;;4945799;29;20477;-73
2022/12/22 08:47:39;;;;;;;2.90;1.25;;;11.90;99.90;;;;;;4957820;28;20170;-70
2022/12/22 08:50:05;;;;;;;1.38;0.30;;;12.00;99.90;;;;;;4968950;28;20054;-72
2022/12/22 08:52:32;;;;;;;2.05;0.75;;;12.00;99.90;;;;;;4963044;28;20046;-73
2022/12/22 08:54:57;;;;;;;4.30;1.10;;;12.00;99.90;;;;;;4965174;28;20042;-70
2022/12/22 08:57:23;;;;;;;9.52;1.15;;;12.00;99.90;;;;;;4951250;28;20031;-73
2022/12/22 08:59:49;;;;;;;5.80;0.55;;;12.00;99.90;;;;;;4956926;28;20810;-70
2022/12/22 09:02:14;;;;;;;3.83;1.00;;;11.90;99.90;;;;;;4966884;28;20037;-72
2022/12/22 09:04:40;;;;;;;4.28;1.15;;;11.90;99.90;;;;;;4965342;28;20039;-72
2022/12/22 09:07:06;;;;;;;9.95;0.93;;;11.90;99.90;;;;;;4966518;28;20031;-73
2022/12/22 09:09:33;;;;;;;3.55;1.05;;;12.00;99.90;;;;;;4973998;28;20082;-72
2022/12/22 09:12:00;;;;;;;3.00;0.88;;;11.90;99.90;;;;;;4969980;28;20038;-74
2022/12/22 09:14:27;;;;;;;7.18;1.02;;;12.00;99.90;;;;;;4946202;28;20027;-74
2022/12/22 09:16:53;;;;;;;2.95;0.77;;;12.00;99.90;;;;;;4965344;28;20082;-73
2022/12/22 09:19:19;;;;;;;5.18;0.70;;;12.00;99.90;;;;;;4966832;28;20067;-72
2022/12/22 09:21:45;;;;;;;2.67;1.13;;;12.00;99.90;;;;;;4960314;28;20184;-72
2022/12/22 09:24:11;;;;;;;7.32;1.23;;;12.00;99.90;;;;;;4956068;28;20035;-73
2022/12/22 09:26:37;;;;;;;0.73;0.35;;;12.00;99.90;;;;;;4973124;28;20081;-73
2022/12/22 09:29:04;;;;;;;2.92;0.75;;;12.00;99.90;;;;;;4956230;28;20027;-72
2022/12/22 09:31:30;;;;;;;8.48;0.98;;;11.90;99.90;;;;;;4956175;28;20428;-71
2022/12/22 09:33:57;;;;;;;14.65;2.60;;;11.90;99.90;;;;;;4946660;28;20130;-71
2022/12/22 09:36:27;;;;;;;4.95;0.68;;;11.80;99.90;;;;;;4970082;28;20063;-73
2022/12/22 09:38:53;;;;;;;4.57;1.45;;;11.80;99.90;;;;;;4972005;28;20518;-72
2022/12/22 09:41:31;;;;;;;4.28;1.08;;;11.70;99.90;;;;;;4958893;28;20035;-72
2022/12/22 09:44:12;;;;;;;4.03;0.77;;;11.70;99.90;;;;;;4972075;28;20035;-72
2022/12/22 09:46:39;;;;;;;3.35;1.23;;;11.60;99.90;;;;;;4948462;28;20114;-76
2022/12/22 09:49:05;;;;;;;3.15;1.05;;;11.70;99.90;;;;;;4967192;28;20037;-72
2022/12/22 09:51:40;;;;;;;2.50;0.70;;;11.60;99.90;;;;;;4943501;28;20474;-72
2022/12/22 09:54:11;;;;;;;0.65;0.30;;;11.50;99.90;;;;;;4961083;28;20094;-72
2022/12/22 09:56:37;;;;;;;1.10;0.43;;;11.50;99.90;;;;;;4955059;28;20364;-73
2022/12/22 09:59:13;;;;;;;9.00;1.60;;;11.50;99.90;;;;;;4945419;29;20524;-73
2022/12/22 10:01:56;;;;;;;0.65;0.52;;;11.40;99.90;;;;;;4955049;28;20042;-73
2022/12/22 10:04:56;;;;;;;3.75;1.10;;;11.40;99.90;;;;;;4965592;28;20511;-72
2022/12/22 10:07:34;;;;;;;2.80;0.82;;;11.40;99.90;;;;;;4963232;28;20137;-69
2022/12/22 10:10:26;;;;;;;8.55;1.27;;;11.30;99.90;;;;;;4939449;29;20512;-70
2022/12/22 10:12:59;;;;;;;2.58;0.98;;;11.30;99.90;;;;;;4944297;29;20708;-76
2022/12/22 10:15:32;;;;;;;4.10;0.52;;;11.30;99.90;;;;;;4937240;29;20031;-70
2022/12/22 10:18:16;;;;;;;0.70;0.10;;;11.40;99.90;;;;;;4949116;28;20522;-70
2022/12/22 10:21:05;;;;;;;0.20;0.20;;;11.70;99.90;;;;;;4963839;28;20094;-74
2022/12/22 10:23:33;;;;;;;0.05;0.05;;;11.90;99.90;;;;;;4961304;28;20031;-75
2022/12/22 10:26:10;;;;;;;0.90;0.32;;;12.00;99.90;;;;;;4941051;28;20035;-75
2022/12/22 10:29:09;;;;;;;0.20;0.20;;;12.00;99.90;;;;;;4956133;28;20121;-74
2022/12/22 10:32:09;;;;;;;0.00;0.00;;;12.00;99.90;;;;;;4962745;28;20039;-74
2022/12/22 10:34:35;;;;;;;0.28;0.22;;;12.10;99.90;;;;;;4963690;28;20558;-74
2022/12/22 10:37:04;;;;;;;0.25;0.13;;;12.10;99.90;;;;;;4964750;28;20035;-75
2022/12/22 10:39:33;;;;;;;0.00;0.00;;;12.30;99.90;;;;;;4965050;28;20046;-75
2022/12/22 10:42:12;;;;;;;0.10;0.05;;;12.30;99.90;;;;;;4966626;28;20121;-75
2022/12/22 10:44:43;;;;;;;0.82;0.45;;;12.40;99.90;;;;;;4952472;28;20094;-74
2022/12/22 10:47:22;;;;;;;0.10;0.10;;;12.40;99.90;;;;;;4964617;28;20090;-73
2022/12/22 10:49:58;;;;;;;0.35;0.20;;;12.30;99.90;;;;;;4948624;28;20419;-74
2022/12/22 10:52:30;;;;;;;1.25;0.50;;;12.30;99.90;;;;;;4970862;28;20105;-74
2022/12/22 10:55:18;;;;;;;0.35;0.28;;;12.40;99.90;;;;;;4969220;28;20031;-73
2022/12/22 10:57:44;;;;;;;0.73;0.43;;;12.30;99.90;;;;;;4953279;29;20035;-74
2022/12/22 11:00:30;;;;;;;0.22;0.05;;;12.40;99.90;;;;;;4961570;28;20037;-75
2022/12/22 11:03:01;;;;;;;1.08;0.35;;;12.40;99.90;;;;;;4960122;28;20211;-74
2022/12/22 11:05:28;;;;;;;0.55;0.22;;;12.40;99.90;;;;;;4951254;28;20034;-74
2022/12/22 11:07:56;;;;;;;0.10;0.10;;;12.50;99.90;;;;;;4948857;29;20061;-73
2022/12/22 11:11:13;;;;;;;0.45;0.25;;;12.40;99.90;;;;;;4966415;28;20031;-73
2022/12/22 11:13:57;;;;;;;3.80;1.02;;;12.40;99.90;;;;;;4962676;28;20030;-72
2022/12/22 11:17:16;;;;;;;3.30;0.47;;;12.40;99.90;;;;;;4946306;28;20035;-73
2022/12/22 11:20:10;;;;;;;1.17;0.30;;;12.30;99.90;;;;;;4892333;29;20041;-74
2022/12/22 11:22:57;;;;;;;0.63;0.20;;;12.30;99.90;;;;;;4893068;29;20059;-74
2022/12/22 11:25:50;;;;;;;0.00;0.00;;;12.30;99.90;;;;;;4947700;28;20047;-73
2022/12/22 11:28:35;;;;;;;0.55;0.17;;;12.30;99.90;;;;;;4968603;28;20073;-72
2022/12/22 11:31:42;;;;;;;2.55;0.20;;;12.30;99.90;;;;;;4943364;29;20035;-72
2022/12/22 11:34:11;;;;;;;0.40;0.28;;;12.40;99.90;;;;;;4965030;28;20039;-72
2022/12/22 11:37:02;;;;;;;0.13;0.13;;;12.40;99.90;;;;;;4952555;28;20039;-71
2022/12/22 11:39:42;;;;;;;2.40;0.17;;;12.30;99.90;;;;;;4959212;28;20038;-72
2022/12/22 11:42:38;;;;;;;0.10;0.10;;;12.20;99.90;;;;;;4959015;28;20035;-73
2022/12/22 11:45:43;;;;;;;1.63;0.30;;;12.20;99.90;;;;;;4952659;28;20511;-72
2022/12/22 11:48:49;;;;;;;1.10;0.30;;;12.20;99.90;;;;;;4943016;29;20042;-71
2022/12/22 11:51:33;;;;;;;11.55;0.52;;;12.20;99.90;;;;;;4968883;28;20062;-71
2022/12/22 11:54:17;;;;;;;0.63;0.22;;;12.10;99.90;;;;;;4952544;28;20513;-70
2022/12/22 11:57:39;;;;;;;6.50;0.43;;;12.10;99.90;;;;;;4966599;28;20039;-70
2022/12/22 12:00:13;;;;;;;;;;;12.10;99.90;;;;;;4928041;28;20035;-72
2022/12/22 12:03:22;;;;;;;0.30;0.10;;;12.10;99.90;;;;;;4960266;28;20442;-71
2022/12/22 12:06:31;;;;;;;0.80;0.50;;;12.10;99.90;;;;;;4964099;28;20491;-71
2022/12/22 12:10:03;;;;;;;0.35;0.30;;;12.10;99.90;;;;;;4956249;28;20113;-70
2022/12/22 12:12:52;;;;;;;0.98;0.30;;;12.10;99.90;;;;;;4871028;29;20047;-72
2022/12/22 12:15:31;;;;;;;0.85;0.43;;;12.00;99.90;;;;;;4935358;28;20840;-71
2022/12/22 12:18:25;;;;;;;0.28;0.17;;;12.10;99.90;;;;;;4966611;28;20395;-71
2022/12/22 12:21:27;;;;;;;0.43;0.22;;;12.10;99.90;;;;;;4945108;28;20049;-71
2022/12/22 12:24:39;;;;;;;0.10;0.10;;;12.00;99.90;;;;;;4951102;28;20050;-71
2022/12/22 12:27:28;;;;;;;0.35;0.28;;;12.00;99.90;;;;;;4957178;28;20071;-72
2022/12/22 12:30:18;;;;;;;1.10;0.32;;;12.10;99.90;;;;;;4952635;28;20027;-72
2022/12/22 12:32:57;;;;;;;0.10;0.10;;;12.10;99.90;;;;;;4945503;28;20058;-72
2022/12/22 12:35:45;;;;;;;0.10;0.10;;;12.10;99.90;;;;;;4955230;28;20031;-73
2022/12/22 12:38:58;;;;;;;1.67;0.30;;;12.10;99.90;;;;;;4966391;28;20039;-72
2022/12/22 12:41:41;;;;;;;0.35;0.15;;;12.10;99.90;;;;;;4972099;28;20442;-72
2022/12/22 12:44:15;;;;;;;0.15;0.15;;;12.10;99.90;;;;;;4955705;28;20114;-71
2022/12/22 12:46:51;;;;;;;0.30;0.15;;;12.10;99.90;;;;;;4955234;28;20066;-70
2022/12/22 12:49:34;;;;;;;0.43;0.10;;;12.10;99.90;;;;;;4964986;28;20407;-70
2022/12/22 12:52:01;;;;;;;0.35;0.30;;;12.10;99.90;;;;;;4973371;28;20042;-70
2022/12/22 12:54:38;;;;;;;0.32;0.30;;;12.10;99.90;;;;;;4966809;28;20077;-72
2022/12/22 12:57:26;;;;;;;0.05;0.05;;;12.10;99.90;;;;;;4973804;28;20057;-71
2022/12/22 12:59:58;;;;;;;0.38;0.20;;;12.20;99.90;;;;;;4963155;28;20479;-71
2022/12/22 13:02:27;;;;;;;0.30;0.10;;;12.10;99.90;;;;;;4944843;28;20035;-73
2022/12/22 13:05:10;;;;;;;0.45;0.30;;;12.10;99.90;;;;;;4965360;28;20115;-73
2022/12/22 13:08:03;;;;;;;0.47;0.22;;;12.10;99.90;;;;;;4964196;28;20042;-71
2022/12/22 13:10:30;;;;;;;0.10;0.10;;;12.10;99.90;;;;;;4970239;28;20030;-72
2022/12/22 13:12:58;;;;;;;0.20;0.20;;;12.10;99.90;;;;;;4967177;28;20506;-72
2022/12/22 13:15:33;;;;;;;0.38;0.20;;;12.10;99.90;;;;;;4966273;28;20035;-73
2022/12/22 13:18:00;;;;;;;0.25;0.20;;;12.10;99.90;;;;;;4965379;28;20189;-72
2022/12/22 13:20:33;;;;;;;1.55;0.50;;;12.10;99.90;;;;;;4968106;28;20042;-72
2022/12/22 13:23:02;;;;;;;1.30;0.47;;;12.20;99.90;;;;;;4964848;28;20475;-73
2022/12/22 13:25:55;;;;;;;0.38;0.20;;;12.30;99.90;;;;;;4969925;28;20081;-68
2022/12/22 13:28:22;;;;;;;0.30;0.10;;;12.30;99.90;;;;;;4974092;28;20049;-76
2022/12/22 13:31:04;;;;;;;0.40;0.25;;;12.20;99.90;;;;;;4970102;28;20030;-71
2022/12/22 13:33:37;;;;;;;0.13;0.13;;;12.10;99.90;;;;;;4955151;28;20035;-70
2022/12/22 13:36:07;;;;;;;0.22;0.22;;;12.20;99.90;;;;;;4947073;29;20039;-70
2022/12/22 13:38:36;;;;;;;0.10;0.10;;;12.20;99.90;;;;;;4955732;28;20030;-72
2022/12/22 13:41:17;;;;;;;0.38;0.30;;;12.30;99.90;;;;;;4969573;28;20039;-74
2022/12/22 13:43:57;;;;;;;0.43;0.40;;;12.40;99.90;;;;;;4972295;28;20113;-70
2022/12/22 13:46:23;;;;;;;0.82;0.47;;;12.90;99.90;;;;;;4958546;28;20043;-71
2022/12/22 13:48:53;;;;;;;0.30;0.20;;;13.50;99.90;;;;;;4950802;29;20039;-72
2022/12/22 13:51:34;;;;;;;0.10;0.10;;;13.60;99.90;;;;;;4946720;28;20035;-70
2022/12/22 13:54:25;;;;;;;0.60;0.22;;;14.00;99.90;;;;;;4951156;28;20067;-74
2022/12/22 13:56:55;;;;;;;0.20;0.20;;;14.50;99.90;;;;;;4973178;28;20038;-72
2022/12/22 13:59:40;;;;;;;0.03;0.03;;;14.40;99.90;;;;;;4948485;28;20031;-74
2022/12/22 14:02:08;;;;;;;1.00;0.32;;;14.00;99.90;;;;;;4946242;29;20050;-69
2022/12/22 14:04:41;;;;;;;0.08;0.08;;;13.70;99.90;;;;;;4958928;28;20533;-72
2022/12/22 14:07:11;;;;;;;0.03;0.03;;;13.50;99.90;;;;;;4950819;29;20047;-73
2022/12/22 14:09:41;;;;;;;0.15;0.10;;;13.20;99.90;;;;;;4970797;28;20022;-74
2022/12/22 14:12:19;;;;;;;4.53;0.28;;;12.90;99.90;;;;;;4962894;28;20041;-75
2022/12/22 14:14:47;;;;;;;0.57;0.20;;;13.00;99.90;;;;;;4950987;28;20035;-72
2022/12/22 14:17:33;;;;;;;0.60;0.28;;;12.90;99.90;;;;;;4962294;28;20089;-73
2022/12/22 14:20:35;;;;;;;0.47;0.30;;;12.90;99.90;;;;;;4943161;29;20072;-72
2022/12/22 14:23:31;;;;;;;0.28;0.10;;;12.70;99.90;;;;;;4961701;28;20027;-71
2022/12/22 14:26:00;;;;;;;0.10;0.10;;;12.60;99.90;;;;;;4959458;28;20047;-71
2022/12/22 14:28:42;;;;;;;1.55;0.25;;;12.50;99.90;;;;;;4952962;28;20032;-73
2022/12/22 14:31:11;;;;;;;1.27;0.38;;;12.50;99.90;;;;;;4964936;28;20046;-71
2022/12/22 14:33:37;;;;;;;1.08;0.22;;;12.40;99.90;;;;;;4966971;28;20062;-71
2022/12/22 14:36:15;;;;;;;0.98;0.70;;;12.40;99.90;;;;;;4962138;28;20039;-70
2022/12/22 14:38:48;;;;;;;1.08;0.55;;;12.40;99.90;;;;;;4956127;28;20490;-72
2022/12/22 14:41:50;;;;;;;0.10;0.10;;;12.50;99.90;;;;;;4959354;28;20039;-73
2022/12/22 14:44:21;;;;;;;9.10;0.75;;;12.30;99.90;;;;;;4962580;28;20066;-71
2022/12/22 14:47:10;;;;;;;0.10;0.10;;;12.30;99.90;;;;;;4961592;28;20035;-72
2022/12/22 14:49:44;;;;;;;1.65;0.28;;;12.20;99.90;;;;;;4968844;28;20030;-72
2022/12/22 14:52:37;;;;;;;0.57;0.57;;;12.30;99.90;;;;;;4972403;28;20034;-74
2022/12/22 14:55:17;;;;;;;1.45;0.73;;;12.20;99.90;;;;;;4964360;28;20042;-71
2022/12/22 14:57:43;;;;;;;0.90;0.30;;;12.30;99.90;;;;;;4953589;28;20045;-72
2022/12/22 15:00:38;;;;;;;0.88;0.50;;;12.20;99.90;;;;;;4963161;28;20106;-72
2022/12/22 15:03:36;;;;;;;2.00;0.88;;;12.20;99.90;;;;;;4972623;28;20105;-72
2022/12/22 15:06:27;;;;;;;0.63;0.30;;;12.10;99.90;;;;;;4960017;28;20027;-72
2022/12/22 15:09:10;;;;;;;3.15;0.52;;;11.90;99.90;;;;;;4970831;28;20047;-72
2022/12/22 15:11:51;;;;;;;0.35;0.30;;;12.00;99.90;;;;;;4956894;28;20027;-73
2022/12/22 15:14:31;;;;;;;0.60;0.35;;;11.90;99.90;;;;;;4954266;28;20566;-72
2022/12/22 15:17:00;;;;;;;0.75;0.40;;;11.80;99.90;;;;;;4963008;28;20398;-72
2022/12/22 15:19:30;;;;;;;2.00;0.20;;;11.70;99.90;;;;;;4954616;28;20042;-72
2022/12/22 15:21:56;;;;;;;1.25;0.52;;;11.60;99.90;;;;;;4962858;28;20042;-73
2022/12/22 15:24:22;;;;;;;1.70;0.43;;;11.50;99.90;;;;;;4971208;28;20925;-73
2022/12/22 15:26:48;;;;;;;1.17;0.88;;;11.50;99.90;;;;;;4964047;28;20043;-73
2022/12/22 15:29:14;;;;;;;0.95;0.50;;;11.50;99.90;;;;;;4971103;28;20348;-73
2022/12/22 15:31:41;;;;;;;2.20;0.43;;;11.50;99.90;;;;;;4963899;28;20035;-73
2022/12/22 15:34:18;;;;;;;4.47;0.52;;;11.50;99.90;;;;;;4951063;29;20044;-73
2022/12/22 15:36:43;;;;;;;3.28;0.28;;;11.40;99.90;;;;;;4943968;28;20019;-73
2022/12/22 15:39:15;;;;;;;0.55;0.43;;;11.50;99.90;;;;;;4959673;28;20109;-73
2022/12/22 15:41:43;;;;;;;0.15;0.10;;;11.60;99.90;;;;;;4946807;28;20113;-73
2022/12/22 15:44:09;;;;;;;1.00;0.38;;;11.50;99.90;;;;;;4954012;28;20182;-73
2022/12/22 15:46:35;;;;;;;2.50;0.60;;;11.40;99.90;;;;;;4946519;28;20102;-73
2022/12/22 15:49:02;;;;;;;0.25;0.25;;;11.30;99.90;;;;;;4969718;28;20521;-74
2022/12/22 15:51:30;;;;;;;3.30;0.75;;;11.20;99.90;;;;;;4945985;28;20043;-73
2022/12/22 15:53:57;;;;;;;0.17;0.17;;;11.10;99.90;;;;;;4947658;28;20080;-71
2022/12/22 15:56:28;;;;;;;5.20;0.88;;;11.00;99.90;;;;;;4960001;28;20034;-69
2022/12/22 15:58:54;;;;;;;5.67;0.70;;;10.90;99.90;;;;;;4942478;29;20070;-73
2022/12/22 16:01:20;;;;;;;2.15;0.82;;;10.90;99.90;;;;;;4948328;28;20781;-73
2022/12/22 16:03:45;;;;;;;3.78;0.57;;;10.90;99.90;;;;;;4958906;28;20027;-70
2022/12/22 16:06:18;;;;;;;2.17;0.98;;;10.90;99.90;;;;;;4945055;28;20114;-66
2022/12/22 16:08:50;;;;;;;5.10;0.50;;;10.90;99.90;;;;;;4946878;28;20049;-67
2022/12/22 16:11:17;;;;;;;2.97;0.80;;;10.90;99.90;;;;;;4951048;28;20389;-65
2022/12/22 16:13:43;;;;;;;1.33;0.82;;;10.80;99.90;;;;;;4953566;28;20034;-66
2022/12/22 16:16:10;;;;;;;1.08;0.55;;;10.70;99.90;;;;;;4954386;28;20081;-67
2022/12/22 16:18:36;;;;;;;2.00;0.35;;;10.70;99.90;;;;;;4951186;28;20038;-66
2022/12/22 16:21:13;;;;;;;2.75;1.00;;;10.70;99.90;;;;;;4947750;28;20035;-76
2022/12/22 16:23:41;;;;;;;7.82;0.65;;;10.60;99.90;;;;;;4943814;28;20508;-73
2022/12/22 16:26:09;;;;;;;11.93;1.20;;;10.60;99.90;;;;;;4947657;29;20035;-74
2022/12/22 16:28:34;;;;;;;4.90;0.85;;;10.60;99.90;;;;;;4962517;28;20062;-74
2022/12/22 16:31:00;;;;;;;8.18;1.83;;;10.70;99.90;;;;;;4965404;28;20179;-72
2022/12/22 16:33:26;;;;;;;6.57;1.35;;;10.60;99.90;;;;;;4956981;28;20059;-74
2022/12/22 16:35:52;;;;;;;8.68;1.13;;;10.70;99.90;;;;;;4968460;28;20037;-73
2022/12/22 16:38:17;;;;;;;5.78;1.98;;;10.60;99.90;;;;;;4962892;28;20089;-73
2022/12/22 16:40:51;;;;;;;12.95;2.00;;;10.50;99.90;;;;;;4968334;28;20499;-73
2022/12/22 16:43:28;;;;;;;6.13;0.88;;;10.50;99.90;;;;;;4963347;28;20070;-73
2022/12/22 16:45:55;;;;;;;8.55;2.35;;;10.40;99.90;;;;;;4962307;28;20603;-73
2022/12/22 16:48:41;;;;;;;4.10;1.38;;;10.30;99.90;;;;;;4964578;28;20035;-73
2022/12/22 16:51:13;;;;;;;14.23;2.65;;;10.30;99.90;;;;;;4958346;28;20549;-72
2022/12/22 16:53:39;;;;;;;13.77;2.35;;;10.30;99.90;;;;;;4946641;28;20042;-72
2022/12/22 16:56:05;;;;;;;7.82;1.80;;;10.30;99.90;;;;;;4952279;28;20027;-72